Elmwood, Wisconsin
Current Conditions -  °F | °C
As of 9:35 PM on Saturday 22 Nov 2014 (Local Time) from KLUM Reporting Station
Moderate Fog Moderate Fog  
Wind Chill: 30°   Ceiling: 200
Heat Index: 35°   Visibility: 0.25mi
Dew Point: 35°   Wind: 7mph
Humidity: 98%   Direction: 110°ESE
Pressure: 29.63"   Gusts: NA
Location:  44.78°N, 92.15°W
Report Text: KLUM 230335Z AUTO 11006KT 1/4SM FG OVC002 02/02 A2963 RMK AO2 T00190016
Loading
Personal Weather Stations






























Interactive Weather Map New forecast layout! Learn more

10-Day Weather Forecast

Advertisements
Track Severe Weather on mobile